Time;durP1;ratioP1;P1;durP2;ratioP2;P2;SDS_P1;SDS_P2;PMS_P1;PMS_P2;Temp;Humidity;BMP_temperature;BMP_pressure;BME280_temperature;BME280_humidity;BME280_pressure;Samples;Min_cycle;Max_cycle;Signal;HPM_P1;HPM_P2
2022/08/06 00:02:29;;;;;;;1.60;0.60;;;;;;;14.76;68.40;102269.16;5027008;28;20032;-83
2022/08/06 00:05:01;;;;;;;4.47;0.75;;;;;;;14.72;68.53;102260.00;5014687;28;20049;-83
2022/08/06 00:07:29;;;;;;;5.93;1.05;;;;;;;14.66;68.58;102276.25;5046651;28;20159;-83
2022/08/06 00:09:58;;;;;;;5.32;0.90;;;;;;;14.60;68.85;102267.22;5033397;28;20036;-83
2022/08/06 00:12:24;;;;;;;6.57;0.98;;;;;;;14.55;69.15;102274.63;5037986;28;20101;-83
2022/08/06 00:14:50;;;;;;;5.03;0.80;;;;;;;14.51;69.36;102271.50;5031389;28;20033;-83
2022/08/06 00:17:21;;;;;;;7.03;1.88;;;;;;;14.50;69.71;102275.06;5041378;28;20060;-83
2022/08/06 00:19:49;;;;;;;2.83;1.23;;;;;;;14.48;69.58;102277.00;5025203;28;20029;-83
2022/08/06 00:22:14;;;;;;;2.83;0.70;;;;;;;14.45;69.91;102279.06;5030687;28;20062;-83
2022/08/06 00:24:40;;;;;;;4.38;1.25;;;;;;;14.42;69.79;102288.03;5038411;28;20130;-83
2022/08/06 00:27:05;;;;;;;1.77;0.73;;;;;;;14.39;70.08;102288.31;5044901;28;20440;-83
2022/08/06 00:29:31;;;;;;;3.20;0.65;;;;;;;14.34;70.34;102282.72;5034507;28;20033;-83
2022/08/06 00:32:06;;;;;;;1.35;0.73;;;;;;;14.30;70.47;102290.00;5033042;28;20048;-83
2022/08/06 00:34:31;;;;;;;6.80;1.10;;;;;;;14.27;70.93;102294.69;5036714;28;20478;-83
2022/08/06 00:36:56;;;;;;;3.47;0.98;;;;;;;14.23;71.00;102293.34;5027223;28;20030;-83
2022/08/06 00:39:23;;;;;;;4.10;1.00;;;;;;;14.19;71.06;102292.81;5036017;28;20744;-83
2022/08/06 00:41:49;;;;;;;2.80;0.90;;;;;;;14.15;71.30;102294.88;5020540;28;20048;-83
2022/08/06 00:44:14;;;;;;;4.70;1.05;;;;;;;14.12;71.13;102302.16;5020095;28;20028;-83
2022/08/06 00:46:41;;;;;;;5.93;1.15;;;;;;;14.10;71.47;102288.44;5032926;28;20082;-82
2022/08/06 00:49:07;;;;;;;3.60;0.98;;;;;;;14.07;71.39;102292.16;5034248;28;20111;-83
2022/08/06 00:51:34;;;;;;;2.85;0.98;;;;;;;14.03;71.96;102288.19;5034805;28;20033;-83
2022/08/06 00:54:01;;;;;;;4.97;0.90;;;;;;;13.99;72.26;102297.25;5048403;28;20060;-84
2022/08/06 00:56:26;;;;;;;3.72;0.90;;;;;;;13.96;72.59;102294.94;5032603;28;20028;-83
2022/08/06 00:58:52;;;;;;;4.05;1.05;;;;;;;13.93;72.28;102293.44;5029968;28;20541;-83
2022/08/06 01:01:17;;;;;;;3.13;0.90;;;;;;;13.89;72.65;102294.69;5034997;28;20586;-83
2022/08/06 01:03:43;;;;;;;2.42;0.90;;;;;;;13.87;72.56;102301.00;5036040;28;20309;-83
2022/08/06 01:06:16;;;;;;;6.30;1.00;;;;;;;13.83;72.66;102301.28;5050594;28;20103;-83
2022/08/06 01:08:41;;;;;;;3.35;1.02;;;;;;;13.80;72.78;102303.34;5036651;28;20112;-83
2022/08/06 01:11:15;;;;;;;2.47;1.10;;;;;;;13.73;73.15;102310.91;5050031;28;20076;-83
2022/08/06 01:13:40;;;;;;;1.63;0.90;;;;;;;13.71;72.98;102314.59;5033558;28;20035;-83
2022/08/06 01:16:09;;;;;;;4.93;1.08;;;;;;;13.69;72.88;102319.97;5036535;28;20033;-84
2022/08/06 01:19:05;;;;;;;2.90;0.88;;;;;;;13.67;72.88;102321.88;5050357;28;20041;-84
2022/08/06 01:21:37;;;;;;;3.58;1.13;;;;;;;13.64;73.23;102322.19;5022819;28;20045;-83
2022/08/06 01:24:39;;;;;;;3.97;1.15;;;;;;;13.57;73.55;102326.28;5031627;28;20405;-84
2022/08/06 01:27:17;;;;;;;6.75;1.50;;;;;;;13.50;73.93;102323.41;5011714;28;20561;-84
2022/08/06 01:29:48;;;;;;;3.63;0.88;;;;;;;13.45;74.37;102320.41;5049428;28;20033;-83
2022/08/06 01:32:22;;;;;;;3.80;1.48;;;;;;;13.41;74.89;102325.06;5033190;28;20045;-83
2022/08/06 01:34:58;;;;;;;2.35;0.82;;;;;;;13.33;75.17;102324.09;5046308;28;20026;-83
2022/08/06 01:37:33;;;;;;;6.60;1.00;;;;;;;13.24;75.62;102320.50;5031415;28;20124;-83
2022/08/06 01:40:11;;;;;;;3.17;1.00;;;;;;;13.18;76.07;102319.25;5035665;28;20123;-83
2022/08/06 01:42:39;;;;;;;4.20;1.20;;;;;;;13.18;76.02;102328.84;5011054;28;20037;-83
2022/08/06 01:45:10;;;;;;;6.85;1.23;;;;;;;13.17;76.11;102335.03;5026995;28;20025;-83
2022/08/06 01:47:37;;;;;;;5.80;1.35;;;;;;;13.18;76.01;102332.28;5033347;28;20033;-83
2022/08/06 01:50:24;;;;;;;6.97;1.30;;;;;;;13.17;76.06;102330.66;5049567;28;20473;-84
2022/08/06 01:52:53;;;;;;;4.30;1.17;;;;;;;13.15;76.04;102329.97;5029083;28;20033;-84
2022/08/06 01:55:19;;;;;;;2.97;0.75;;;;;;;13.14;75.91;102330.91;5030106;28;20059;-83
2022/08/06 01:57:51;;;;;;;4.32;1.20;;;;;;;13.13;76.12;102339.69;5034849;28;20029;-83
2022/08/06 02:00:17;;;;;;;2.97;1.20;;;;;;;13.05;76.31;102348.19;5048602;28;20029;-84
2022/08/06 02:02:45;;;;;;;6.65;1.20;;;;;;;13.01;76.68;102354.59;5031529;28;20041;-83
2022/08/06 02:05:13;;;;;;;5.75;1.10;;;;;;;12.99;76.75;102355.69;5044573;28;20034;-83
2022/08/06 02:07:41;;;;;;;4.32;1.52;;;;;;;12.98;76.87;102356.69;5024326;28;20029;-83
2022/08/06 02:10:09;;;;;;;8.02;2.00;;;;;;;12.97;76.79;102353.22;5031504;28;20029;-83
2022/08/06 02:12:37;;;;;;;6.15;1.75;;;;;;;12.92;77.09;102346.78;5049217;28;20033;-83
2022/08/06 02:15:13;;;;;;;2.90;1.10;;;;;;;12.87;76.83;102356.78;5041755;28;20033;-83
2022/08/06 02:17:45;;;;;;;3.33;1.23;;;;;;;12.83;77.14;102353.63;5032490;28;20103;-83
2022/08/06 02:20:14;;;;;;;2.85;1.30;;;;;;;12.82;77.13;102352.78;5031960;28;20037;-83
2022/08/06 02:22:41;;;;;;;3.75;1.60;;;;;;;12.79;77.47;102347.00;5046879;28;20047;-84
2022/08/06 02:25:11;;;;;;;3.08;1.55;;;;;;;12.69;77.68;102341.78;5032922;28;20042;-83
2022/08/06 02:27:40;;;;;;;6.80;1.35;;;;;;;12.56;78.21;102343.78;5031344;28;20470;-83
2022/08/06 02:30:06;;;;;;;3.13;1.65;;;;;;;12.52;78.83;102350.22;5031839;28;20028;-83
2022/08/06 02:32:31;;;;;;;2.42;1.40;;;;;;;12.53;78.76;102352.69;5031993;28;20115;-84
2022/08/06 02:34:58;;;;;;;3.53;1.30;;;;;;;12.56;78.46;102356.81;5031011;28;20065;-83
2022/08/06 02:37:29;;;;;;;2.72;1.52;;;;;;;12.59;78.46;102354.75;5046603;28;20055;-83
2022/08/06 02:40:07;;;;;;;2.45;1.45;;;;;;;12.61;78.24;102360.66;5030247;28;20139;-83
2022/08/06 02:42:39;;;;;;;2.53;1.40;;;;;;;12.60;77.81;102353.81;5033365;28;20037;-83
2022/08/06 02:45:09;;;;;;;3.05;1.60;;;;;;;12.60;78.13;102363.38;5016590;28;20041;-84
2022/08/06 02:47:59;;;;;;;5.32;2.00;;;;;;;12.60;78.23;102369.44;5029560;28;20029;-83
2022/08/06 02:50:39;;;;;;;7.85;1.70;;;;;;;12.56;78.21;102360.22;5034342;28;20037;-84
2022/08/06 02:53:09;;;;;;;5.78;1.42;;;;;;;12.51;78.33;102367.63;5031084;28;20056;-85
2022/08/06 02:55:39;;;;;;;4.95;1.60;;;;;;;12.49;78.59;102361.72;5012645;28;20032;-84
2022/08/06 02:58:17;;;;;;;3.00;1.45;;;;;;;12.48;78.75;102362.66;5047551;28;20033;-85
2022/08/06 03:00:47;;;;;;;5.53;1.40;;;;;;;12.47;78.55;102366.22;5049241;28;20560;-83
2022/08/06 03:03:15;;;;;;;4.63;1.65;;;;;;;12.46;78.72;102369.78;5032784;28;20075;-83
2022/08/06 03:05:45;;;;;;;3.40;1.50;;;;;;;12.42;78.78;102376.19;5031438;28;20032;-83
2022/08/06 03:08:15;;;;;;;4.55;1.70;;;;;;;12.25;79.23;102375.84;5049358;28;20037;-83
2022/08/06 03:10:42;;;;;;;9.48;1.63;;;;;;;12.13;79.59;102386.44;5016490;28;20033;-84
2022/08/06 03:13:09;;;;;;;4.45;1.60;;;;;;;12.04;79.90;102383.66;5013433;28;20025;-84
2022/08/06 03:15:35;;;;;;;4.30;1.40;;;;;;;12.04;80.00;102381.03;5030496;28;20064;-83
2022/08/06 03:18:03;;;;;;;7.18;1.70;;;;;;;12.05;80.02;102392.25;5017540;28;20033;-84
2022/08/06 03:20:31;;;;;;;5.47;1.95;;;;;;;12.07;80.09;102380.81;5047721;28;20453;-84
2022/08/06 03:22:59;;;;;;;8.23;1.85;;;;;;;12.09;79.82;102383.25;5049289;28;20032;-83
2022/08/06 03:25:27;;;;;;;6.50;1.90;;;;;;;12.05;79.68;102384.47;5033570;28;20029;-85
2022/08/06 03:27:54;;;;;;;3.92;1.80;;;;;;;11.95;80.00;102383.59;5011905;28;20064;-84
2022/08/06 03:30:21;;;;;;;4.30;1.95;;;;;;;11.84;80.32;102385.25;5037371;28;20032;-83
2022/08/06 03:32:47;;;;;;;3.97;2.13;;;;;;;11.72;80.85;102382.84;5032650;28;20068;-83
2022/08/06 03:35:14;;;;;;;5.05;1.92;;;;;;;11.63;81.29;102393.03;5023738;28;20391;-83
2022/08/06 03:37:41;;;;;;;3.35;1.58;;;;;;;11.63;81.50;102387.81;5034437;28;20143;-85
2022/08/06 03:40:08;;;;;;;5.72;2.08;;;;;;;11.67;81.44;102389.22;5030226;28;20033;-84
2022/08/06 03:42:34;;;;;;;6.05;2.00;;;;;;;11.72;80.97;102391.47;4999536;28;20048;-84
2022/08/06 03:45:00;;;;;;;4.80;2.22;;;;;;;11.73;81.02;102389.69;5044602;28;20029;-83
2022/08/06 03:47:32;;;;;;;4.25;1.98;;;;;;;11.75;80.99;102396.38;5033041;28;20037;-84
2022/08/06 03:50:10;;;;;;;3.25;2.20;;;;;;;11.77;80.94;102399.72;5018907;28;20043;-84
2022/08/06 03:52:42;;;;;;;3.67;2.17;;;;;;;11.80;80.96;102406.44;5045754;28;20063;-84
2022/08/06 03:55:12;;;;;;;4.70;2.42;;;;;;;11.81;80.87;102405.47;5051142;28;20111;-84
2022/08/06 03:57:45;;;;;;;6.15;2.80;;;;;;;11.77;81.08;102407.50;5048936;28;20040;-84
2022/08/06 04:00:14;;;;;;;5.53;2.00;;;;;;;11.78;81.13;102410.94;5032585;28;20037;-84
2022/08/06 04:02:46;;;;;;;4.57;2.40;;;;;;;11.77;81.04;102404.91;5050684;28;20102;-86
2022/08/06 04:05:17;;;;;;;6.68;2.38;;;;;;;11.77;81.33;102404.91;5034974;28;20052;-83
2022/08/06 04:07:44;;;;;;;5.40;2.55;;;;;;;11.74;81.75;102401.75;5036190;28;20033;-84
2022/08/06 04:10:11;;;;;;;9.13;2.55;;;;;;;11.72;82.21;102401.03;5034896;28;20021;-84
2022/08/06 04:12:36;;;;;;;7.53;2.55;;;;;;;11.68;82.00;102400.47;5044602;28;20064;-84
2022/08/06 04:15:04;;;;;;;6.97;2.40;;;;;;;11.67;82.00;102404.81;5036908;28;20064;-84
2022/08/06 04:17:30;;;;;;;6.68;2.30;;;;;;;11.66;82.15;102407.56;5034241;28;20056;-84
2022/08/06 04:19:56;;;;;;;2.95;2.20;;;;;;;11.65;82.05;102405.91;5032704;28;20037;-84
2022/08/06 04:22:22;;;;;;;9.35;2.58;;;;;;;11.61;82.58;102407.91;5031873;28;20540;-84
2022/08/06 04:24:47;;;;;;;6.57;2.30;;;;;;;11.54;83.08;102417.13;5030660;28;20048;-84
2022/08/06 04:27:14;;;;;;;5.10;2.22;;;;;;;11.57;83.06;102418.69;5032226;28;20026;-84
2022/08/06 04:29:40;;;;;;;8.05;2.65;;;;;;;11.57;82.48;102418.69;5019868;28;20091;-84
2022/08/06 04:32:07;;;;;;;4.63;2.00;;;;;;;11.58;82.51;102410.75;5031034;28;20037;-85
2022/08/06 04:34:36;;;;;;;5.25;2.20;;;;;;;11.60;82.70;102415.81;5051427;28;20033;-83
2022/08/06 04:37:02;;;;;;;4.53;2.42;;;;;;;11.61;82.65;102422.69;5017903;28;20087;-83
2022/08/06 04:39:28;;;;;;;4.85;2.40;;;;;;;11.63;82.49;102425.97;5050464;28;21479;-83
2022/08/06 04:41:57;;;;;;;6.32;2.35;;;;;;;11.65;82.42;102432.69;5045068;28;20119;-83
2022/08/06 04:44:23;;;;;;;7.88;2.60;;;;;;;11.64;82.97;102428.47;5034097;28;20033;-84
2022/08/06 04:46:50;;;;;;;9.32;2.78;;;;;;;11.60;83.55;102431.41;5035151;28;20223;-84
2022/08/06 04:49:16;;;;;;;9.13;2.70;;;;;;;11.60;83.58;102423.63;5052984;28;20021;-83
2022/08/06 04:51:46;;;;;;;14.80;3.25;;;;;;;11.57;83.97;102431.69;5013383;28;20120;-84
2022/08/06 04:54:16;;;;;;;5.72;3.22;;;;;;;11.57;84.54;102429.06;5019337;28;20076;-84
2022/08/06 04:56:43;;;;;;;6.32;2.67;;;;;;;11.59;84.86;102432.38;5031754;28;20060;-84
2022/08/06 04:59:09;;;;;;;6.32;2.70;;;;;;;11.63;85.06;102450.19;5027372;28;20029;-85
2022/08/06 05:01:36;;;;;;;6.60;2.38;;;;;;;11.66;84.78;102446.53;5021111;28;20071;-84
2022/08/06 05:04:02;;;;;;;8.48;2.88;;;;;;;11.69;84.84;102441.88;5033363;28;20037;-84
2022/08/06 05:06:38;;;;;;;5.55;2.97;;;;;;;11.71;85.10;102446.16;5034002;28;20040;-83
2022/08/06 05:09:17;;;;;;;6.07;3.08;;;;;;;11.70;85.29;102447.94;5031222;28;20370;-84
2022/08/06 05:11:56;;;;;;;9.85;3.25;;;;;;;11.72;85.48;102453.81;5035581;28;20033;-84
2022/08/06 05:14:36;;;;;;;10.88;2.92;;;;;;;11.78;85.57;102463.72;5036120;28;20976;-84
2022/08/06 05:17:03;;;;;;;7.88;3.25;;;;;;;11.84;85.41;102457.22;5019489;28;20029;-84
2022/08/06 05:19:36;;;;;;;8.48;3.60;;;;;;;11.91;85.46;102460.19;5049442;28;20052;-84
2022/08/06 05:22:02;;;;;;;8.27;2.80;;;;;;;11.97;85.50;102455.28;5034223;28;20033;-86
2022/08/06 05:24:28;;;;;;;6.45;3.72;;;;;;;12.03;85.22;102461.75;5050436;28;20047;-84
2022/08/06 05:26:55;;;;;;;5.25;3.03;;;;;;;12.09;85.35;102466.47;5046673;28;20116;-84
2022/08/06 05:29:21;;;;;;;8.75;3.25;;;;;;;12.12;85.51;102468.00;5033690;28;20048;-84
2022/08/06 05:31:47;;;;;;;8.82;3.45;;;;;;;12.18;85.40;102467.50;5017106;28;20029;-87
2022/08/06 05:34:13;;;;;;;6.22;2.75;;;;;;;12.21;85.11;102468.06;5016711;28;20040;-84
2022/08/06 05:36:39;;;;;;;8.25;3.22;;;;;;;12.26;85.31;102468.53;5032775;28;20028;-84
2022/08/06 05:39:05;;;;;;;6.78;3.20;;;;;;;12.32;85.39;102471.53;5018941;28;20029;-84
2022/08/06 05:41:30;;;;;;;8.00;3.35;;;;;;;12.38;85.28;102478.88;5029322;28;20405;-83
2022/08/06 05:43:58;;;;;;;8.50;3.55;;;;;;;12.42;85.42;102477.66;5029390;28;20028;-83
2022/08/06 05:46:26;;;;;;;10.93;4.63;;;;;;;12.43;85.47;102487.09;5015250;28;20070;-84
2022/08/06 05:49:03;;;;;;;10.65;4.38;;;;;;;12.46;85.23;102487.66;5047358;28;20042;-83
2022/08/06 05:51:37;;;;;;;12.43;4.60;;;;;;;12.48;85.07;102481.53;5033480;28;20033;-84
2022/08/06 05:54:13;;;;;;;10.57;5.00;;;;;;;12.54;85.29;102488.81;5034402;28;20044;-83
2022/08/06 05:56:42;;;;;;;9.40;4.28;;;;;;;12.63;85.14;102488.03;5015946;28;20436;-84
2022/08/06 05:59:17;;;;;;;8.07;3.75;;;;;;;12.78;84.73;102491.13;5016985;28;20056;-84
2022/08/06 06:01:43;;;;;;;8.13;3.75;;;;;;;13.07;83.82;102485.22;5031240;28;20032;-84
2022/08/06 06:04:09;;;;;;;9.88;3.60;;;;;;;13.41;82.90;102493.59;5047170;28;20036;-83
2022/08/06 06:06:35;;;;;;;10.02;3.60;;;;;;;13.82;81.20;102482.16;5032083;28;20489;-84
2022/08/06 06:09:00;;;;;;;6.95;3.72;;;;;;;14.28;79.50;102485.00;5043385;28;20036;-82
2022/08/06 06:11:31;;;;;;;7.22;4.43;;;;;;;14.71;77.54;102485.47;5032162;28;20024;-83
2022/08/06 06:13:56;;;;;;;10.32;4.50;;;;;;;15.02;75.03;102483.44;5045311;28;20037;-83
2022/08/06 06:16:40;;;;;;;11.15;3.63;;;;;;;15.27;72.97;102489.78;5016413;28;20040;-84
2022/08/06 06:19:34;;;;;;;6.53;3.58;;;;;;;15.45;71.24;102492.44;5032131;28;20036;-84
2022/08/06 06:22:04;;;;;;;;;;;;;;;15.63;71.37;102492.44;5035051;28;20071;-83
2022/08/06 06:24:40;;;;;;;16.02;5.07;;;;;;;15.84;70.74;102483.53;5015885;28;20301;-83
2022/08/06 06:27:45;;;;;;;6.25;3.60;;;;;;;16.08;69.94;102490.75;5029657;28;20078;-84
2022/08/06 06:30:18;;;;;;;11.07;3.60;;;;;;;16.39;68.80;102488.53;5012258;28;20256;-84
2022/08/06 06:33:15;;;;;;;8.02;3.00;;;;;;;16.64;68.41;102491.31;5045789;28;20029;-84
2022/08/06 06:35:59;;;;;;;10.50;2.97;;;;;;;16.90;67.52;102491.31;5016776;28;20068;-85
2022/08/06 06:38:46;;;;;;;12.90;3.35;;;;;;;16.85;66.89;102489.16;5046574;28;20033;-83
2022/08/06 06:41:21;;;;;;;8.95;3.05;;;;;;;16.99;66.65;102500.00;5028207;28;20521;-87
2022/08/06 06:44:04;;;;;;;8.68;3.50;;;;;;;17.24;65.96;102488.66;5015753;28;20028;-85
2022/08/06 06:47:01;;;;;;;4.38;2.95;;;;;;;17.46;nan;102484.63;5026975;28;20041;-83
2022/08/06 06:49:37;;;;;;;8.70;4.53;;;;;;;17.52;64.80;102485.78;5048914;28;20041;-83
2022/08/06 06:52:23;;;;;;;15.35;6.35;;;;;;;17.29;65.45;102491.63;5028456;28;20025;-84
2022/08/06 06:54:54;;;;;;;8.57;2.90;;;;;;;17.39;65.55;102494.09;5029753;28;20060;-84
2022/08/06 06:57:29;;;;;;;6.35;2.40;;;;;;;17.34;65.38;102495.56;5015633;28;20036;-84
2022/08/06 06:59:57;;;;;;;8.57;2.40;;;;;;;17.19;65.66;102503.22;5017867;28;20029;-83
2022/08/06 07:02:24;;;;;;;7.95;2.10;;;;;;;17.21;66.59;102499.44;5033203;28;20440;-85
2022/08/06 07:04:51;;;;;;;6.55;2.17;;;;;;;17.63;65.47;102505.63;5015885;28;20057;-83
2022/08/06 07:07:18;;;;;;;7.10;2.03;;;;;;;18.02;64.53;102507.66;5027563;28;20036;-83
2022/08/06 07:09:45;;;;;;;8.57;2.50;;;;;;;18.56;62.31;102515.81;5026216;28;20055;-84
2022/08/06 07:12:12;;;;;;;6.85;2.40;;;;;;;18.66;60.39;102505.94;5040245;28;20452;-83
2022/08/06 07:14:40;;;;;;;4.45;2.28;;;;;;;19.25;59.66;102508.22;5047131;28;20478;-82
2022/08/06 07:17:08;;;;;;;8.88;3.30;;;;;;;19.40;58.20;102512.72;5028257;28;20033;-83
2022/08/06 07:19:34;;;;;;;12.18;1.80;;;;;;;19.97;57.26;102514.19;5037447;28;20517;-82
2022/08/06 07:22:02;;;;;;;7.55;2.10;;;;;;;20.37;56.03;102506.91;5033883;28;20067;-83
2022/08/06 07:24:36;;;;;;;7.95;2.28;;;;;;;20.59;54.08;102515.75;5023248;28;20397;-83
2022/08/06 07:27:03;;;;;;;6.15;1.35;;;;;;;20.64;53.12;102516.03;5035185;28;20030;-83
2022/08/06 07:29:34;;;;;;;6.30;2.00;;;;;;;20.91;52.07;102517.22;5045641;28;20029;-83
2022/08/06 07:32:01;;;;;;;4.07;1.13;;;;;;;21.38;51.60;102512.50;5019672;28;20048;-83
2022/08/06 07:34:26;;;;;;;4.38;1.58;;;;;;;21.10;52.01;102515.03;5039800;28;20040;-83
2022/08/06 07:36:54;;;;;;;7.60;2.20;;;;;;;21.49;51.53;102519.97;5026872;28;20029;-82
2022/08/06 07:39:33;;;;;;;4.03;1.42;;;;;;;21.74;51.19;102516.97;5034406;28;20037;-82
2022/08/06 07:42:01;;;;;;;3.08;1.30;;;;;;;21.96;50.52;102518.56;5028216;28;20037;-83
2022/08/06 07:44:27;;;;;;;4.85;1.92;;;;;;;21.87;48.83;102524.16;5036252;28;20029;-82
2022/08/06 07:46:57;;;;;;;4.82;1.38;;;;;;;21.73;48.88;102520.59;5016352;28;20060;-86
2022/08/06 07:49:29;;;;;;;4.88;0.75;;;;;;;21.69;47.93;102527.25;5022818;28;20103;-83
2022/08/06 07:51:56;;;;;;;6.47;0.80;;;;;;;21.90;47.36;102526.44;5039199;28;20460;-82
2022/08/06 07:54:25;;;;;;;2.33;0.70;;;;;;;22.31;46.80;102516.00;5041672;28;20401;-81
2022/08/06 07:56:51;;;;;;;3.70;0.75;;;;;;;22.39;46.70;102520.31;5049054;28;20535;-82
2022/08/06 07:59:18;;;;;;;2.55;0.93;;;;;;;23.02;45.55;102524.72;5036144;28;20067;-83
2022/08/06 08:01:44;;;;;;;5.60;0.90;;;;;;;22.96;44.50;102520.22;5047253;28;20098;-83
2022/08/06 08:06:58;;;;;;;3.63;0.90;;;;;;;22.60;45.83;102522.06;5030353;28;20037;-83
2022/08/06 08:09:26;;;;;;;2.75;0.47;;;;;;;22.18;46.45;102521.19;5015940;28;20033;-83
2022/08/06 08:11:52;;;;;;;8.90;1.10;;;;;;;21.44;48.27;102521.50;5031949;28;20044;-82
2022/08/06 08:14:20;;;;;;;3.85;0.75;;;;;;;22.06;45.87;102522.72;5020265;28;20463;-83
2022/08/06 08:16:46;;;;;;;3.05;0.50;;;;;;;22.56;45.91;102520.84;5037066;28;20032;-83
2022/08/06 08:19:32;;;;;;;2.60;0.57;;;;;;;22.39;44.91;102519.53;5052541;28;20033;-81
2022/08/06 08:22:19;;;;;;;2.58;0.50;;;;;;;22.20;45.67;102521.78;5034245;28;20033;-82
2022/08/06 08:24:47;;;;;;;2.22;0.40;;;;;;;21.87;46.51;102521.50;5018282;28;20108;-82
2022/08/06 08:27:14;;;;;;;6.18;0.85;;;;;;;21.41;48.18;102527.94;5034136;28;20030;-83
2022/08/06 08:29:41;;;;;;;2.38;0.40;;;;;;;21.75;48.09;102529.94;5035108;28;20021;-82
2022/08/06 08:32:08;;;;;;;2.97;0.45;;;;;;;22.16;46.00;102524.00;5037870;28;20788;-83
2022/08/06 08:34:35;;;;;;;2.22;0.50;;;;;;;22.88;44.45;102524.66;5038488;28;20037;-83
2022/08/06 08:37:01;;;;;;;2.35;0.60;;;;;;;22.93;44.53;102521.44;5016075;28;20026;-83
2022/08/06 08:39:30;;;;;;;3.00;0.60;;;;;;;22.82;44.40;102519.34;5020568;28;20056;-84
2022/08/06 08:42:09;;;;;;;1.33;0.40;;;;;;;22.19;45.01;102525.47;5034216;28;20135;-83
2022/08/06 08:44:35;;;;;;;3.25;0.55;;;;;;;21.45;46.00;102523.16;5037513;28;20036;-84
2022/08/06 08:47:03;;;;;;;1.83;0.38;;;;;;;21.54;45.69;102519.41;5037937;28;20022;-83
2022/08/06 08:49:40;;;;;;;1.02;0.40;;;;;;;22.32;45.20;102519.47;5041218;28;20049;-85
2022/08/06 08:52:14;;;;;;;3.42;0.47;;;;;;;22.85;44.59;102514.50;5045483;28;20032;-84
2022/08/06 08:54:45;;;;;;;4.22;0.30;;;;;;;22.69;43.07;102515.63;5044667;28;20064;-83
2022/08/06 08:57:11;;;;;;;1.60;0.45;;;;;;;23.02;41.58;102519.44;5058336;28;20042;-83
2022/08/06 08:59:39;;;;;;;1.83;0.65;;;;;;;22.77;43.03;102513.84;5042805;28;20149;-82
2022/08/06 09:02:05;;;;;;;3.75;0.50;;;;;;;22.17;43.09;102509.00;5037572;28;20063;-84
2022/08/06 09:04:33;;;;;;;0.90;0.20;;;;;;;22.17;43.49;102525.66;5037575;28;20029;-84
2022/08/06 09:07:01;;;;;;;2.10;0.40;;;;;;;21.74;44.92;102520.41;5032210;28;20116;-83
2022/08/06 09:09:27;;;;;;;2.88;0.43;;;;;;;21.79;45.40;102522.47;5047250;28;20029;-84
2022/08/06 09:11:53;;;;;;;1.00;0.35;;;;;;;21.74;44.95;102522.25;5036358;28;20037;-83
2022/08/06 09:14:20;;;;;;;4.75;0.70;;;;;;;21.19;46.25;102527.91;5043132;28;20033;-84
2022/08/06 09:16:45;;;;;;;4.88;0.88;;;;;;;21.27;45.69;102526.19;5054633;28;20033;-82
2022/08/06 09:19:12;;;;;;;2.28;0.40;;;;;;;20.89;45.79;102531.56;5050050;28;20036;-83
2022/08/06 09:21:39;;;;;;;2.35;0.50;;;;;;;21.32;45.17;102526.41;5043169;28;20048;-84
2022/08/06 09:24:05;;;;;;;2.85;0.35;;;;;;;21.91;43.26;102523.59;5043368;28;20056;-83
2022/08/06 09:26:33;;;;;;;1.85;0.40;;;;;;;21.86;42.98;102528.63;5054880;28;20390;-84
2022/08/06 09:28:59;;;;;;;1.88;0.70;;;;;;;21.51;45.07;102523.22;5051862;28;20021;-85
2022/08/06 09:31:25;;;;;;;1.88;0.75;;;;;;;21.38;45.38;102523.06;5032297;28;20025;-87
2022/08/06 09:33:53;;;;;;;4.45;1.38;;;;;;;21.04;45.49;102526.28;5048757;28;20074;-83
2022/08/06 09:36:19;;;;;;;0.40;0.25;;;;;;;21.19;45.22;102524.44;5048339;28;20036;-83
2022/08/06 09:38:51;;;;;;;3.22;1.02;;;;;;;20.97;45.53;102527.03;5040217;28;20028;-84
2022/08/06 09:41:19;;;;;;;2.85;1.23;;;;;;;21.24;45.33;102529.19;5032687;28;20117;-82
2022/08/06 09:43:46;;;;;;;2.20;0.43;;;;;;;21.08;45.48;102531.03;5022202;28;20037;-82
2022/08/06 09:46:12;;;;;;;2.33;0.50;;;;;;;20.98;45.76;102530.47;5054777;28;20033;-83
2022/08/06 09:48:55;;;;;;;4.78;0.55;;;;;;;20.49;45.90;102536.28;5038972;28;20050;-84
2022/08/06 09:51:21;;;;;;;;;;;;;;;20.25;46.77;102542.56;5034171;28;20033;-85
2022/08/06 09:53:58;;;;;;;1.20;0.30;;;;;;;20.27;47.98;102540.59;5063064;28;19912;-84
2022/08/06 09:56:25;;;;;;;0.98;0.50;;;;;;;20.27;49.09;102538.78;5056633;28;20124;-84
2022/08/06 09:58:57;;;;;;;3.30;0.65;;;;;;;20.71;48.68;102538.03;5057642;28;20035;-84
2022/08/06 10:01:24;;;;;;;3.03;0.43;;;;;;;21.38;47.78;102533.63;5027917;28;20054;-83
2022/08/06 10:03:55;;;;;;;4.10;0.57;;;;;;;21.55;46.28;102527.13;5045555;28;20495;-84
2022/08/06 10:06:21;;;;;;;1.70;0.30;;;;;;;21.75;45.29;102524.66;5045896;28;20116;-84
2022/08/06 10:08:48;;;;;;;2.33;0.52;;;;;;;21.83;44.84;102526.38;5051275;28;20020;-86
2022/08/06 10:11:14;;;;;;;1.42;0.32;;;;;;;21.83;45.24;102531.66;5050868;28;20029;-83
2022/08/06 10:13:46;;;;;;;1.02;0.40;;;;;;;22.12;43.88;102527.22;5034896;28;20086;-84
2022/08/06 10:16:26;;;;;;;8.63;0.70;;;;;;;22.39;44.15;102522.16;5024410;28;20596;-83
2022/08/06 10:18:53;;;;;;;0.70;0.20;;;;;;;22.58;43.42;102521.47;5030667;28;20033;-82
2022/08/06 10:21:33;;;;;;;2.35;0.60;;;;;;;22.70;42.54;102522.56;5034939;28;20102;-86
2022/08/06 10:24:02;;;;;;;0.93;0.50;;;;;;;22.40;43.37;102523.81;5036365;28;20025;-83
2022/08/06 10:26:29;;;;;;;4.35;0.50;;;;;;;22.46;42.53;102517.75;5035074;28;20078;-83
2022/08/06 10:29:01;;;;;;;7.75;0.68;;;;;;;22.61;41.97;102514.97;5036650;28;20075;-84
2022/08/06 10:31:27;;;;;;;3.17;0.50;;;;;;;22.76;41.96;102514.88;5017352;28;20111;-85
2022/08/06 10:34:10;;;;;;;1.13;0.35;;;;;;;22.83;41.93;102516.53;5041857;28;20074;-84
2022/08/06 10:36:40;;;;;;;2.38;0.52;;;;;;;22.35;42.26;102513.81;5045018;28;20124;-83
2022/08/06 10:39:07;;;;;;;0.70;0.30;;;;;;;21.92;43.54;102516.50;5035628;28;20029;-84
2022/08/06 10:41:34;;;;;;;1.23;0.45;;;;;;;21.32;44.51;102527.25;5033191;28;20166;-85
2022/08/06 10:44:02;;;;;;;0.73;0.30;;;;;;;21.49;45.23;102517.31;5030828;28;20071;-82
2022/08/06 10:46:28;;;;;;;3.13;0.45;;;;;;;21.77;44.08;102513.91;5015382;28;20034;-82
2022/08/06 10:48:54;;;;;;;2.28;0.30;;;;;;;21.88;43.81;102516.06;5045468;28;20086;-81
2022/08/06 10:51:21;;;;;;;2.05;0.50;;;;;;;21.96;43.46;102509.81;5028689;28;20436;-81
2022/08/06 10:53:47;;;;;;;1.17;0.40;;;;;;;21.61;44.15;102514.19;5022708;28;20060;-80
2022/08/06 10:56:14;;;;;;;1.42;0.50;;;;;;;21.41;44.19;102513.94;5016966;28;20029;-82
2022/08/06 10:58:40;;;;;;;3.10;0.70;;;;;;;21.48;44.29;102509.59;5034499;28;20165;-83
2022/08/06 11:01:32;;;;;;;3.40;0.70;;;;;;;21.32;44.04;102519.34;5035807;28;20521;-81
2022/08/06 11:04:20;;;;;;;1.63;0.40;;;;;;;21.33;45.29;102520.97;5015166;28;20045;-81
2022/08/06 11:07:20;;;;;;;0.60;0.32;;;;;;;21.84;43.31;102506.06;5018213;28;20475;-83
2022/08/06 11:10:07;;;;;;;3.30;0.40;;;;;;;22.61;41.97;102502.56;5039197;28;20037;-81
2022/08/06 11:12:50;;;;;;;1.88;0.40;;;;;;;22.98;41.16;102494.41;5034378;28;20028;-81
2022/08/06 11:15:17;;;;;;;2.58;0.60;;;;;;;23.09;40.05;102497.34;5033202;28;20037;-79
2022/08/06 11:17:54;;;;;;;1.17;0.40;;;;;;;22.97;40.21;102487.50;5028709;28;21018;-80
2022/08/06 11:20:31;;;;;;;1.25;0.40;;;;;;;22.54;41.04;102491.94;5029907;28;20111;-81
2022/08/06 11:23:01;;;;;;;3.45;0.80;;;;;;;22.22;42.38;102495.19;5020563;28;20048;-81
2022/08/06 11:25:47;;;;;;;1.20;0.52;;;;;;;22.07;42.41;102495.28;5034119;28;20066;-81
2022/08/06 11:28:33;;;;;;;1.52;0.45;;;;;;;21.89;42.36;102493.94;5017450;28;20082;-81
2022/08/06 11:31:01;;;;;;;1.10;0.40;;;;;;;22.10;42.26;102489.63;5015815;28;20103;-81
2022/08/06 11:33:32;;;;;;;4.32;0.40;;;;;;;22.30;41.66;102489.78;5031975;28;20029;-82
2022/08/06 11:36:09;;;;;;;1.75;0.30;;;;;;;22.59;40.92;102493.22;5030838;28;20425;-81
2022/08/06 11:38:50;;;;;;;2.80;0.40;;;;;;;22.68;39.48;102492.06;5033590;28;20482;-83
2022/08/06 11:41:26;;;;;;;1.63;0.40;;;;;;;22.49;40.13;102490.91;5025619;28;20041;-82
2022/08/06 11:43:51;;;;;;;1.45;0.35;;;;;;;22.60;39.34;102487.72;5032826;28;20025;-81